sensor_id;sensor_type;location;lat;lon;timestamp;P1;P2;P0
77320;PMS7003;66382;52.252;8.780;2023-11-19T00:00:05;3.33;3.33;2.33
77320;PMS7003;66382;52.252;8.780;2023-11-19T00:02:31;3.00;3.00;2.00
77320;PMS7003;66382;52.252;8.780;2023-11-19T00:04:57;2.00;2.00;2.00
77320;PMS7003;66382;52.252;8.780;2023-11-19T00:07:22;2.00;2.00;2.00
77320;PMS7003;66382;52.252;8.780;2023-11-19T00:09:48;2.00;2.00;2.00
77320;PMS7003;66382;52.252;8.780;2023-11-19T00:12:13;2.00;2.00;2.00
77320;PMS7003;66382;52.252;8.780;2023-11-19T00:14:40;1.00;1.00;1.00
77320;PMS7003;66382;52.252;8.780;2023-11-19T00:17:05;2.33;2.33;2.00
77320;PMS7003;66382;52.252;8.780;2023-11-19T00:19:31;2.00;2.00;1.67
77320;PMS7003;66382;52.252;8.780;2023-11-19T00:21:56;1.00;1.00;1.00
77320;PMS7003;66382;52.252;8.780;2023-11-19T00:24:21;3.00;3.00;2.00
77320;PMS7003;66382;52.252;8.780;2023-11-19T00:26:47;3.00;3.00;3.00
77320;PMS7003;66382;52.252;8.780;2023-11-19T00:29:12;3.00;3.00;3.00
77320;PMS7003;66382;52.252;8.780;2023-11-19T00:31:39;3.00;3.00;3.00
77320;PMS7003;66382;52.252;8.780;2023-11-19T00:34:04;2.00;2.00;1.67
77320;PMS7003;66382;52.252;8.780;2023-11-19T00:36:30;1.00;1.00;0.00
77320;PMS7003;66382;52.252;8.780;2023-11-19T00:38:55;3.00;3.00;3.00
77320;PMS7003;66382;52.252;8.780;2023-11-19T00:41:21;3.33;3.33;3.33
77320;PMS7003;66382;52.252;8.780;2023-11-19T00:43:46;3.00;3.00;3.00
77320;PMS7003;66382;52.252;8.780;2023-11-19T00:46:12;3.00;3.00;2.00
77320;PMS7003;66382;52.252;8.780;2023-11-19T00:48:39;2.67;2.67;2.33
77320;PMS7003;66382;52.252;8.780;2023-11-19T00:51:05;2.00;2.00;2.00
77320;PMS7003;66382;52.252;8.780;2023-11-19T00:53:30;2.00;2.00;2.00
77320;PMS7003;66382;52.252;8.780;2023-11-19T00:55:56;2.00;2.00;1.33
77320;PMS7003;66382;52.252;8.780;2023-11-19T00:58:22;2.00;2.00;1.67
77320;PMS7003;66382;52.252;8.780;2023-11-19T01:00:47;2.67;2.67;2.67
77320;PMS7003;66382;52.252;8.780;2023-11-19T01:03:12;2.00;2.00;2.00
77320;PMS7003;66382;52.252;8.780;2023-11-19T01:05:39;2.00;2.00;2.00
77320;PMS7003;66382;52.252;8.780;2023-11-19T01:08:05;33.25;32.50;25.25
77320;PMS7003;66382;52.252;8.780;2023-11-19T01:10:30;2.33;2.33;2.00
77320;PMS7003;66382;52.252;8.780;2023-11-19T01:12:56;1.67;1.67;1.33
77320;PMS7003;66382;52.252;8.780;2023-11-19T01:15:21;1.00;1.00;1.00
77320;PMS7003;66382;52.252;8.780;2023-11-19T01:17:47;1.00;1.00;1.00
77320;PMS7003;66382;52.252;8.780;2023-11-19T01:20:12;1.00;1.00;1.00
77320;PMS7003;66382;52.252;8.780;2023-11-19T01:22:39;1.00;1.00;1.00
77320;PMS7003;66382;52.252;8.780;2023-11-19T01:25:05;1.33;1.33;1.00
77320;PMS7003;66382;52.252;8.780;2023-11-19T01:27:31;1.00;1.00;1.00
77320;PMS7003;66382;52.252;8.780;2023-11-19T01:29:57;2.00;2.00;2.00
77320;PMS7003;66382;52.252;8.780;2023-11-19T01:32:22;2.00;2.00;1.00
77320;PMS7003;66382;52.252;8.780;2023-11-19T01:34:48;1.00;1.00;1.00
77320;PMS7003;66382;52.252;8.780;2023-11-19T01:37:13;0.33;0.33;0.33
77320;PMS7003;66382;52.252;8.780;2023-11-19T01:39:40;1.00;1.00;1.00
77320;PMS7003;66382;52.252;8.780;2023-11-19T01:42:08;2.00;2.00;2.00
77320;PMS7003;66382;52.252;8.780;2023-11-19T01:44:34;1.00;1.00;1.00
77320;PMS7003;66382;52.252;8.780;2023-11-19T01:46:59;1.00;1.00;1.00
77320;PMS7003;66382;52.252;8.780;2023-11-19T01:49:25;2.00;2.00;1.33
77320;PMS7003;66382;52.252;8.780;2023-11-19T01:51:51;2.00;2.00;2.00
77320;PMS7003;66382;52.252;8.780;2023-11-19T01:54:16;1.00;1.00;1.00
77320;PMS7003;66382;52.252;8.780;2023-11-19T01:56:43;2.00;2.00;1.00
77320;PMS7003;66382;52.252;8.780;2023-11-19T01:59:09;2.33;2.33;2.00
77320;PMS7003;66382;52.252;8.780;2023-11-19T02:01:37;2.00;2.00;2.00
77320;PMS7003;66382;52.252;8.780;2023-11-19T02:04:02;3.00;3.00;2.00
77320;PMS7003;66382;52.252;8.780;2023-11-19T02:06:29;3.00;3.00;3.00
77320;PMS7003;66382;52.252;8.780;2023-11-19T02:08:56;2.33;2.33;2.33
77320;PMS7003;66382;52.252;8.780;2023-11-19T02:11:22;3.33;3.33;3.00
77320;PMS7003;66382;52.252;8.780;2023-11-19T02:13:49;3.67;3.67;3.00
77320;PMS7003;66382;52.252;8.780;2023-11-19T02:16:14;3.00;3.00;3.00
77320;PMS7003;66382;52.252;8.780;2023-11-19T02:18:39;4.33;4.33;4.00
77320;PMS7003;66382;52.252;8.780;2023-11-19T02:21:05;4.00;4.00;4.00
77320;PMS7003;66382;52.252;8.780;2023-11-19T02:23:30;5.00;5.00;4.00
77320;PMS7003;66382;52.252;8.780;2023-11-19T02:26:01;7.00;7.00;6.00
77320;PMS7003;66382;52.252;8.780;2023-11-19T02:28:32;5.00;5.00;4.00
77320;PMS7003;66382;52.252;8.780;2023-11-19T02:30:58;6.33;6.33;5.00
77320;PMS7003;66382;52.252;8.780;2023-11-19T02:33:23;7.33;6.33;6.00
77320;PMS7003;66382;52.252;8.780;2023-11-19T02:35:49;5.33;5.33;4.33
77320;PMS7003;66382;52.252;8.780;2023-11-19T02:38:14;8.00;8.00;7.00
77320;PMS7003;66382;52.252;8.780;2023-11-19T02:40:40;7.00;7.00;6.00
77320;PMS7003;66382;52.252;8.780;2023-11-19T02:43:05;8.00;8.00;6.00
77320;PMS7003;66382;52.252;8.780;2023-11-19T02:45:32;7.00;7.00;5.67
77320;PMS7003;66382;52.252;8.780;2023-11-19T02:47:57;7.00;7.00;6.00
77320;PMS7003;66382;52.252;8.780;2023-11-19T02:50:23;7.33;7.33;6.00
77320;PMS7003;66382;52.252;8.780;2023-11-19T02:52:48;9.00;9.00;7.00
77320;PMS7003;66382;52.252;8.780;2023-11-19T02:55:14;6.00;6.00;5.00
77320;PMS7003;66382;52.252;8.780;2023-11-19T02:57:39;7.67;7.67;6.67
77320;PMS7003;66382;52.252;8.780;2023-11-19T03:00:05;9.00;9.00;7.00
77320;PMS7003;66382;52.252;8.780;2023-11-19T03:02:33;8.00;8.00;6.00
77320;PMS7003;66382;52.252;8.780;2023-11-19T03:04:58;8.33;8.33;7.00
77320;PMS7003;66382;52.252;8.780;2023-11-19T03:07:24;9.00;9.00;7.67
77320;PMS7003;66382;52.252;8.780;2023-11-19T03:09:49;6.33;6.33;5.00
77320;PMS7003;66382;52.252;8.780;2023-11-19T03:12:15;7.67;7.67;7.00
77320;PMS7003;66382;52.252;8.780;2023-11-19T03:14:40;9.00;9.00;7.00
77320;PMS7003;66382;52.252;8.780;2023-11-19T03:17:06;9.00;9.00;7.00
77320;PMS7003;66382;52.252;8.780;2023-11-19T03:19:32;8.33;8.33;7.33
77320;PMS7003;66382;52.252;8.780;2023-11-19T03:21:58;9.67;9.33;7.33
77320;PMS7003;66382;52.252;8.780;2023-11-19T03:24:23;10.00;10.00;7.00
77320;PMS7003;66382;52.252;8.780;2023-11-19T03:26:49;10.00;10.00;8.00
77320;PMS7003;66382;52.252;8.780;2023-11-19T03:29:14;10.67;10.67;8.00
77320;PMS7003;66382;52.252;8.780;2023-11-19T03:31:41;15.00;15.00;11.00
77320;PMS7003;66382;52.252;8.780;2023-11-19T03:34:07;11.33;11.33;9.00
77320;PMS7003;66382;52.252;8.780;2023-11-19T03:36:33;13.33;13.33;10.67
77320;PMS7003;66382;52.252;8.780;2023-11-19T03:38:59;15.25;15.25;11.00
77320;PMS7003;66382;52.252;8.780;2023-11-19T03:41:24;14.67;14.67;11.67
77320;PMS7003;66382;52.252;8.780;2023-11-19T03:43:50;14.33;14.33;11.00
77320;PMS7003;66382;52.252;8.780;2023-11-19T03:46:16;16.00;16.00;13.33
77320;PMS7003;66382;52.252;8.780;2023-11-19T03:48:42;17.00;17.00;12.25
77320;PMS7003;66382;52.252;8.780;2023-11-19T03:51:08;16.00;16.00;13.33
77320;PMS7003;66382;52.252;8.780;2023-11-19T03:53:35;18.75;18.75;13.25
77320;PMS7003;66382;52.252;8.780;2023-11-19T03:56:00;18.50;18.50;14.25
77320;PMS7003;66382;52.252;8.780;2023-11-19T03:58:26;19.33;19.33;14.67
77320;PMS7003;66382;52.252;8.780;2023-11-19T04:00:51;18.00;18.00;15.00
77320;PMS7003;66382;52.252;8.780;2023-11-19T04:03:16;21.25;21.25;14.00
77320;PMS7003;66382;52.252;8.780;2023-11-19T04:05:42;20.25;20.25;14.75
77320;PMS7003;66382;52.252;8.780;2023-11-19T04:08:07;23.25;23.25;17.75
77320;PMS7003;66382;52.252;8.780;2023-11-19T04:10:34;20.00;20.00;13.75
77320;PMS7003;66382;52.252;8.780;2023-11-19T04:12:59;21.50;21.50;16.00
77320;PMS7003;66382;52.252;8.780;2023-11-19T04:15:25;20.67;20.67;15.00
77320;PMS7003;66382;52.252;8.780;2023-11-19T04:17:50;19.00;19.00;15.33
77320;PMS7003;66382;52.252;8.780;2023-11-19T04:20:16;23.50;23.50;17.75
77320;PMS7003;66382;52.252;8.780;2023-11-19T04:22:41;25.00;25.00;18.00
77320;PMS7003;66382;52.252;8.780;2023-11-19T04:25:07;23.25;23.25;16.25
77320;PMS7003;66382;52.252;8.780;2023-11-19T04:27:34;21.25;21.25;15.75
77320;PMS7003;66382;52.252;8.780;2023-11-19T04:30:00;22.50;22.50;16.00
77320;PMS7003;66382;52.252;8.780;2023-11-19T04:32:25;20.33;20.33;16.67
77320;PMS7003;66382;52.252;8.780;2023-11-19T04:34:50;23.75;23.75;17.50
77320;PMS7003;66382;52.252;8.780;2023-11-19T04:37:16;22.67;22.67;16.33
77320;PMS7003;66382;52.252;8.780;2023-11-19T04:39:41;20.33;20.33;16.00
77320;PMS7003;66382;52.252;8.780;2023-11-19T04:42:09;22.67;22.33;15.00
77320;PMS7003;66382;52.252;8.780;2023-11-19T04:44:36;21.33;21.33;17.00
77320;PMS7003;66382;52.252;8.780;2023-11-19T04:47:01;24.33;24.00;18.00
77320;PMS7003;66382;52.252;8.780;2023-11-19T04:49:26;24.75;24.75;15.50
77320;PMS7003;66382;52.252;8.780;2023-11-19T04:51:52;21.33;21.33;15.00
77320;PMS7003;66382;52.252;8.780;2023-11-19T04:54:17;18.67;18.67;16.00
77320;PMS7003;66382;52.252;8.780;2023-11-19T04:56:44;20.00;20.00;14.00
77320;PMS7003;66382;52.252;8.780;2023-11-19T04:59:10;19.00;19.00;15.00
77320;PMS7003;66382;52.252;8.780;2023-11-19T05:01:37;18.33;18.33;14.33
77320;PMS7003;66382;52.252;8.780;2023-11-19T05:04:02;17.33;17.33;13.67
77320;PMS7003;66382;52.252;8.780;2023-11-19T05:06:28;18.00;18.00;13.67
77320;PMS7003;66382;52.252;8.780;2023-11-19T05:08:54;18.33;18.33;13.00
77320;PMS7003;66382;52.252;8.780;2023-11-19T05:11:20;16.67;16.67;13.00
77320;PMS7003;66382;52.252;8.780;2023-11-19T05:13:45;18.33;18.33;13.67
77320;PMS7003;66382;52.252;8.780;2023-11-19T05:16:11;20.00;20.00;16.00
77320;PMS7003;66382;52.252;8.780;2023-11-19T05:18:37;21.33;21.33;17.00
77320;PMS7003;66382;52.252;8.780;2023-11-19T05:21:03;20.00;20.00;14.67
77320;PMS7003;66382;52.252;8.780;2023-11-19T05:23:29;18.67;18.67;14.67
77320;PMS7003;66382;52.252;8.780;2023-11-19T05:25:54;17.33;17.33;15.00
77320;PMS7003;66382;52.252;8.780;2023-11-19T05:28:20;18.00;18.00;14.67
77320;PMS7003;66382;52.252;8.780;2023-11-19T05:30:45;18.33;18.33;14.00
77320;PMS7003;66382;52.252;8.780;2023-11-19T05:33:10;23.00;23.00;16.67
77320;PMS7003;66382;52.252;8.780;2023-11-19T05:35:37;16.33;16.33;14.00
77320;PMS7003;66382;52.252;8.780;2023-11-19T05:38:03;19.00;19.00;14.00
77320;PMS7003;66382;52.252;8.780;2023-11-19T05:40:28;20.00;20.00;12.00
77320;PMS7003;66382;52.252;8.780;2023-11-19T05:42:53;16.00;16.00;13.33
77320;PMS7003;66382;52.252;8.780;2023-11-19T05:45:19;15.00;15.00;11.67
77320;PMS7003;66382;52.252;8.780;2023-11-19T05:47:44;15.00;15.00;12.33
77320;PMS7003;66382;52.252;8.780;2023-11-19T05:50:10;15.00;15.00;12.00
77320;PMS7003;66382;52.252;8.780;2023-11-19T05:52:37;15.50;15.50;12.00
77320;PMS7003;66382;52.252;8.780;2023-11-19T05:55:02;14.00;14.00;11.00
77320;PMS7003;66382;52.252;8.780;2023-11-19T05:57:28;9.75;9.75;8.00
77320;PMS7003;66382;52.252;8.780;2023-11-19T05:59:54;9.67;9.67;7.67
77320;PMS7003;66382;52.252;8.780;2023-11-19T06:02:19;10.00;10.00;8.33
77320;PMS7003;66382;52.252;8.780;2023-11-19T06:04:44;8.00;8.00;6.00
77320;PMS7003;66382;52.252;8.780;2023-11-19T06:07:10;10.00;10.00;7.00
77320;PMS7003;66382;52.252;8.780;2023-11-19T06:09:37;8.67;8.67;7.33
77320;PMS7003;66382;52.252;8.780;2023-11-19T06:12:02;9.00;9.00;7.00
77320;PMS7003;66382;52.252;8.780;2023-11-19T06:14:28;8.50;8.00;6.50
77320;PMS7003;66382;52.252;8.780;2023-11-19T06:16:54;7.00;7.00;5.33
77320;PMS7003;66382;52.252;8.780;2023-11-19T06:19:19;6.00;6.00;5.00
77320;PMS7003;66382;52.252;8.780;2023-11-19T06:21:44;7.33;7.33;6.00
77320;PMS7003;66382;52.252;8.780;2023-11-19T06:24:10;6.00;6.00;4.33
77320;PMS7003;66382;52.252;8.780;2023-11-19T06:26:37;11.00;11.00;8.00
77320;PMS7003;66382;52.252;8.780;2023-11-19T06:29:02;9.25;9.25;7.00
77320;PMS7003;66382;52.252;8.780;2023-11-19T06:31:27;12.67;12.67;9.67
77320;PMS7003;66382;52.252;8.780;2023-11-19T06:33:53;6.67;6.67;5.00
77320;PMS7003;66382;52.252;8.780;2023-11-19T06:36:18;5.00;5.00;4.00
77320;PMS7003;66382;52.252;8.780;2023-11-19T06:38:44;6.00;6.00;3.67
77320;PMS7003;66382;52.252;8.780;2023-11-19T06:41:09;7.33;7.33;5.67
77320;PMS7003;66382;52.252;8.780;2023-11-19T06:43:36;6.00;6.00;4.00
77320;PMS7003;66382;52.252;8.780;2023-11-19T06:46:02;8.00;8.00;5.75
77320;PMS7003;66382;52.252;8.780;2023-11-19T06:48:28;8.75;8.75;6.25
77320;PMS7003;66382;52.252;8.780;2023-11-19T06:50:54;7.67;6.67;4.67
77320;PMS7003;66382;52.252;8.780;2023-11-19T06:53:19;6.00;6.00;5.00
77320;PMS7003;66382;52.252;8.780;2023-11-19T06:55:45;7.33;6.33;5.00
77320;PMS7003;66382;52.252;8.780;2023-11-19T06:58:10;6.33;6.33;5.00
77320;PMS7003;66382;52.252;8.780;2023-11-19T07:00:37;6.00;6.00;4.00
77320;PMS7003;66382;52.252;8.780;2023-11-19T07:03:02;6.00;6.00;5.00
77320;PMS7003;66382;52.252;8.780;2023-11-19T07:05:28;6.00;6.00;5.00
77320;PMS7003;66382;52.252;8.780;2023-11-19T07:07:53;4.00;4.00;3.00
77320;PMS7003;66382;52.252;8.780;2023-11-19T07:10:19;5.33;4.67;4.00
77320;PMS7003;66382;52.252;8.780;2023-11-19T07:12:44;5.33;5.33;4.00
77320;PMS7003;66382;52.252;8.780;2023-11-19T07:15:09;6.00;6.00;4.33
77320;PMS7003;66382;52.252;8.780;2023-11-19T07:17:36;5.67;5.67;4.00
77320;PMS7003;66382;52.252;8.780;2023-11-19T07:20:04;8.50;8.50;6.25
77320;PMS7003;66382;52.252;8.780;2023-11-19T07:22:30;6.50;6.00;5.00
77320;PMS7003;66382;52.252;8.780;2023-11-19T07:24:55;4.00;4.00;4.00
77320;PMS7003;66382;52.252;8.780;2023-11-19T07:27:20;7.00;7.00;5.33
77320;PMS7003;66382;52.252;8.780;2023-11-19T07:29:46;6.33;6.33;4.00
77320;PMS7003;66382;52.252;8.780;2023-11-19T07:32:11;6.00;6.00;5.00
77320;PMS7003;66382;52.252;8.780;2023-11-19T07:34:38;10.00;9.33;6.00
77320;PMS7003;66382;52.252;8.780;2023-11-19T07:37:04;7.00;7.00;4.25
77320;PMS7003;66382;52.252;8.780;2023-11-19T07:39:29;7.33;7.33;4.67
77320;PMS7003;66382;52.252;8.780;2023-11-19T07:41:55;5.33;5.33;4.33
77320;PMS7003;66382;52.252;8.780;2023-11-19T07:44:21;9.50;9.50;6.25
77320;PMS7003;66382;52.252;8.780;2023-11-19T07:46:46;10.00;10.00;6.33
77320;PMS7003;66382;52.252;8.780;2023-11-19T07:49:12;7.67;7.67;5.00
77320;PMS7003;66382;52.252;8.780;2023-11-19T07:51:38;10.00;9.00;6.00
77320;PMS7003;66382;52.252;8.780;2023-11-19T07:54:04;6.75;6.75;5.00
77320;PMS7003;66382;52.252;8.780;2023-11-19T07:56:30;9.00;9.00;5.67
77320;PMS7003;66382;52.252;8.780;2023-11-19T07:58:56;8.50;7.00;4.75
77320;PMS7003;66382;52.252;8.780;2023-11-19T08:01:22;6.00;6.00;4.67
77320;PMS7003;66382;52.252;8.780;2023-11-19T08:03:47;7.33;7.33;5.67
77320;PMS7003;66382;52.252;8.780;2023-11-19T08:06:12;7.00;7.00;4.67
77320;PMS7003;66382;52.252;8.780;2023-11-19T08:08:39;6.67;6.67;4.00
77320;PMS7003;66382;52.252;8.780;2023-11-19T08:11:05;7.00;7.00;4.50
77320;PMS7003;66382;52.252;8.780;2023-11-19T08:13:30;6.33;6.33;5.00
77320;PMS7003;66382;52.252;8.780;2023-11-19T08:15:56;8.00;8.00;5.00
77320;PMS7003;66382;52.252;8.780;2023-11-19T08:18:21;8.00;8.00;6.00
77320;PMS7003;66382;52.252;8.780;2023-11-19T08:20:46;8.67;8.67;6.00
77320;PMS7003;66382;52.252;8.780;2023-11-19T08:23:12;7.67;6.67;4.00
77320;PMS7003;66382;52.252;8.780;2023-11-19T08:25:39;6.33;6.33;5.00
77320;PMS7003;66382;52.252;8.780;2023-11-19T08:28:04;8.75;7.50;5.00
77320;PMS7003;66382;52.252;8.780;2023-11-19T08:30:30;6.67;6.67;5.00
77320;PMS7003;66382;52.252;8.780;2023-11-19T08:32:55;5.33;5.33;4.33
77320;PMS7003;66382;52.252;8.780;2023-11-19T08:35:21;9.67;8.00;5.00
77320;PMS7003;66382;52.252;8.780;2023-11-19T08:37:46;8.33;8.33;4.33
77320;PMS7003;66382;52.252;8.780;2023-11-19T08:40:11;7.00;7.00;5.00
77320;PMS7003;66382;52.252;8.780;2023-11-19T08:42:39;6.67;6.00;4.00
77320;PMS7003;66382;52.252;8.780;2023-11-19T08:45:04;9.50;6.50;4.75
77320;PMS7003;66382;52.252;8.780;2023-11-19T08:47:30;17.00;17.00;13.00
77320;PMS7003;66382;52.252;8.780;2023-11-19T08:49:56;11.00;11.00;6.67
77320;PMS7003;66382;52.252;8.780;2023-11-19T08:52:21;8.33;8.33;5.00
77320;PMS7003;66382;52.252;8.780;2023-11-19T08:54:47;27.75;27.50;17.75
77320;PMS7003;66382;52.252;8.780;2023-11-19T08:57:12;17.67;17.67;12.33
77320;PMS7003;66382;52.252;8.780;2023-11-19T08:59:39;12.00;12.00;9.00
77320;PMS7003;66382;52.252;8.780;2023-11-19T09:02:04;19.67;19.33;13.67
77320;PMS7003;66382;52.252;8.780;2023-11-19T09:04:30;19.33;18.00;12.00
77320;PMS7003;66382;52.252;8.780;2023-11-19T09:06:57;18.33;18.33;12.00
77320;PMS7003;66382;52.252;8.780;2023-11-19T09:09:22;47.75;41.00;25.50
77320;PMS7003;66382;52.252;8.780;2023-11-19T09:11:48;18.00;18.00;11.67
77320;PMS7003;66382;52.252;8.780;2023-11-19T09:14:13;22.67;21.67;14.33
77320;PMS7003;66382;52.252;8.780;2023-11-19T09:16:40;13.00;13.00;9.67
77320;PMS7003;66382;52.252;8.780;2023-11-19T09:19:05;9.25;8.25;6.50
77320;PMS7003;66382;52.252;8.780;2023-11-19T09:21:31;7.33;7.33;5.33
77320;PMS7003;66382;52.252;8.780;2023-11-19T09:23:56;8.00;8.00;6.00
77320;PMS7003;66382;52.252;8.780;2023-11-19T09:26:21;8.67;8.67;5.67
77320;PMS7003;66382;52.252;8.780;2023-11-19T09:28:47;10.00;9.33;6.67
77320;PMS7003;66382;52.252;8.780;2023-11-19T09:31:13;12.50;10.00;5.00
77320;PMS7003;66382;52.252;8.780;2023-11-19T09:33:40;13.33;10.00;8.00
77320;PMS7003;66382;52.252;8.780;2023-11-19T09:36:06;9.00;7.75;5.25
77320;PMS7003;66382;52.252;8.780;2023-11-19T09:38:32;8.00;8.00;5.75
77320;PMS7003;66382;52.252;8.780;2023-11-19T09:40:58;9.33;9.33;7.00
77320;PMS7003;66382;52.252;8.780;2023-11-19T09:43:23;9.67;9.67;6.67
77320;PMS7003;66382;52.252;8.780;2023-11-19T09:45:50;10.50;10.50;7.50
77320;PMS7003;66382;52.252;8.780;2023-11-19T09:48:16;10.75;10.75;8.00
77320;PMS7003;66382;52.252;8.780;2023-11-19T09:50:43;17.33;17.33;13.33
77320;PMS7003;66382;52.252;8.780;2023-11-19T09:53:09;12.67;12.67;10.67
77320;PMS7003;66382;52.252;8.780;2023-11-19T09:55:35;10.67;10.67;8.00
77320;PMS7003;66382;52.252;8.780;2023-11-19T09:58:00;10.33;10.00;6.00
77320;PMS7003;66382;52.252;8.780;2023-11-19T10:00:26;9.25;9.00;6.75
77320;PMS7003;66382;52.252;8.780;2023-11-19T10:02:52;10.00;9.33;7.33
77320;PMS7003;66382;52.252;8.780;2023-11-19T10:05:19;12.25;11.75;8.75
77320;PMS7003;66382;52.252;8.780;2023-11-19T10:07:48;9.25;9.25;6.00
77320;PMS7003;66382;52.252;8.780;2023-11-19T10:10:14;8.00;8.00;5.00
77320;PMS7003;66382;52.252;8.780;2023-11-19T10:12:39;7.67;7.67;6.33
77320;PMS7003;66382;52.252;8.780;2023-11-19T10:15:05;11.00;11.00;8.67
77320;PMS7003;66382;52.252;8.780;2023-11-19T10:17:36;9.75;9.50;5.50
77320;PMS7003;66382;52.252;8.780;2023-11-19T10:20:01;6.67;6.67;5.00
77320;PMS7003;66382;52.252;8.780;2023-11-19T10:22:27;10.00;10.00;6.67
77320;PMS7003;66382;52.252;8.780;2023-11-19T10:24:54;16.33;16.33;9.33
77320;PMS7003;66382;52.252;8.780;2023-11-19T10:27:19;13.00;11.25;7.75
77320;PMS7003;66382;52.252;8.780;2023-11-19T10:29:45;13.67;13.67;8.67
77320;PMS7003;66382;52.252;8.780;2023-11-19T10:32:12;9.25;9.25;7.00
77320;PMS7003;66382;52.252;8.780;2023-11-19T10:34:37;9.00;8.25;6.50
77320;PMS7003;66382;52.252;8.780;2023-11-19T10:37:03;9.33;9.33;7.33
77320;PMS7003;66382;52.252;8.780;2023-11-19T10:39:33;9.00;8.67;5.00
77320;PMS7003;66382;52.252;8.780;2023-11-19T10:42:18;11.25;11.25;8.00
77320;PMS7003;66382;52.252;8.780;2023-11-19T10:44:43;13.00;13.00;8.75
77320;PMS7003;66382;52.252;8.780;2023-11-19T10:47:09;12.00;12.00;8.67
77320;PMS7003;66382;52.252;8.780;2023-11-19T10:49:36;10.00;10.00;5.00
77320;PMS7003;66382;52.252;8.780;2023-11-19T10:52:02;8.33;8.33;6.00
77320;PMS7003;66382;52.252;8.780;2023-11-19T10:54:29;13.25;13.25;8.25
77320;PMS7003;66382;52.252;8.780;2023-11-19T10:56:58;11.00;11.00;8.00
77320;PMS7003;66382;52.252;8.780;2023-11-19T10:59:26;8.75;8.75;6.50
77320;PMS7003;66382;52.252;8.780;2023-11-19T11:01:54;12.75;12.75;6.75
77320;PMS7003;66382;52.252;8.780;2023-11-19T11:04:22;17.25;16.25;10.00
77320;PMS7003;66382;52.252;8.780;2023-11-19T11:06:49;9.75;9.75;6.75
77320;PMS7003;66382;52.252;8.780;2023-11-19T11:09:16;9.00;9.00;5.00
77320;PMS7003;66382;52.252;8.780;2023-11-19T11:11:41;9.00;9.00;5.33
77320;PMS7003;66382;52.252;8.780;2023-11-19T11:14:12;9.50;9.50;5.75
77320;PMS7003;66382;52.252;8.780;2023-11-19T11:16:40;8.00;6.50;3.75
77320;PMS7003;66382;52.252;8.780;2023-11-19T11:19:08;11.25;10.50;6.50
77320;PMS7003;66382;52.252;8.780;2023-11-19T11:21:34;7.50;7.50;5.75
77320;PMS7003;66382;52.252;8.780;2023-11-19T11:24:09;6.25;6.25;4.75
77320;PMS7003;66382;52.252;8.780;2023-11-19T11:29:51;9.00;8.50;5.75
77320;PMS7003;66382;52.252;8.780;2023-11-19T11:32:33;8.00;8.00;5.50
77320;PMS7003;66382;52.252;8.780;2023-11-19T11:35:08;7.50;7.50;5.25
77320;PMS7003;66382;52.252;8.780;2023-11-19T11:37:49;9.00;9.00;6.33
77320;PMS7003;66382;52.252;8.780;2023-11-19T11:40:18;4.50;4.50;2.75
77320;PMS7003;66382;52.252;8.780;2023-11-19T11:42:43;7.67;7.67;5.00
77320;PMS7003;66382;52.252;8.780;2023-11-19T11:45:09;7.00;6.33;5.00
77320;PMS7003;66382;52.252;8.780;2023-11-19T11:50:47;7.50;7.50;5.00
77320;PMS7003;66382;52.252;8.780;2023-11-19T11:53:17;6.25;6.25;4.75
77320;PMS7003;66382;52.252;8.780;2023-11-19T11:55:58;7.25;7.00;4.00
77320;PMS7003;66382;52.252;8.780;2023-11-19T11:58:31;8.50;8.50;4.50
77320;PMS7003;66382;52.252;8.780;2023-11-19T12:00:59;8.00;8.00;4.75
77320;PMS7003;66382;52.252;8.780;2023-11-19T12:03:28;7.75;7.75;4.25
77320;PMS7003;66382;52.252;8.780;2023-11-19T12:05:54;7.50;7.50;5.50
77320;PMS7003;66382;52.252;8.780;2023-11-19T12:08:20;6.67;6.67;4.33
77320;PMS7003;66382;52.252;8.780;2023-11-19T12:10:51;6.75;6.75;4.25
77320;PMS7003;66382;52.252;8.780;2023-11-19T12:13:18;7.75;7.75;5.25
77320;PMS7003;66382;52.252;8.780;2023-11-19T12:18:33;8.25;8.25;5.75
77320;PMS7003;66382;52.252;8.780;2023-11-19T12:20:59;15.00;15.00;11.00
77320;PMS7003;66382;52.252;8.780;2023-11-19T12:23:25;11.50;11.00;7.00
77320;PMS7003;66382;52.252;8.780;2023-11-19T12:25:51;13.50;12.00;7.50
77320;PMS7003;66382;52.252;8.780;2023-11-19T12:28:17;13.00;11.00;9.00
77320;PMS7003;66382;52.252;8.780;2023-11-19T12:30:43;19.67;19.67;14.33
77320;PMS7003;66382;52.252;8.780;2023-11-19T12:33:09;8.00;8.00;7.00
77320;PMS7003;66382;52.252;8.780;2023-11-19T12:35:39;10.25;10.25;7.00
77320;PMS7003;66382;52.252;8.780;2023-11-19T12:38:05;13.75;13.00;8.50
77320;PMS7003;66382;52.252;8.780;2023-11-19T12:40:30;10.00;10.00;7.00
77320;PMS7003;66382;52.252;8.780;2023-11-19T12:42:56;9.00;9.00;7.33
77320;PMS7003;66382;52.252;8.780;2023-11-19T12:45:21;9.67;8.67;6.00
77320;PMS7003;66382;52.252;8.780;2023-11-19T12:47:47;9.67;9.67;7.33
77320;PMS7003;66382;52.252;8.780;2023-11-19T12:50:13;8.00;8.00;5.67
77320;PMS7003;66382;52.252;8.780;2023-11-19T12:52:40;13.33;13.33;8.67
77320;PMS7003;66382;52.252;8.780;2023-11-19T12:57:50;6.25;6.25;4.75
77320;PMS7003;66382;52.252;8.780;2023-11-19T13:00:18;10.00;9.00;6.67
77320;PMS7003;66382;52.252;8.780;2023-11-19T13:02:45;5.75;5.75;4.25
77320;PMS7003;66382;52.252;8.780;2023-11-19T13:05:24;11.00;9.50;5.75
77320;PMS7003;66382;52.252;8.780;2023-11-19T13:07:51;7.25;6.50;4.00
77320;PMS7003;66382;52.252;8.780;2023-11-19T13:10:23;8.50;8.50;6.00
77320;PMS7003;66382;52.252;8.780;2023-11-19T13:12:59;11.33;11.00;6.67
77320;PMS7003;66382;52.252;8.780;2023-11-19T13:15:28;7.25;7.25;5.25
77320;PMS7003;66382;52.252;8.780;2023-11-19T13:17:54;9.67;9.67;6.00
77320;PMS7003;66382;52.252;8.780;2023-11-19T13:20:19;9.67;9.67;7.00
77320;PMS7003;66382;52.252;8.780;2023-11-19T13:22:54;8.67;8.67;6.67
77320;PMS7003;66382;52.252;8.780;2023-11-19T13:25:22;9.00;9.00;6.75
77320;PMS7003;66382;52.252;8.780;2023-11-19T13:27:48;9.33;9.33;5.67
77320;PMS7003;66382;52.252;8.780;2023-11-19T13:30:14;9.67;9.67;7.00
77320;PMS7003;66382;52.252;8.780;2023-11-19T13:32:40;7.75;7.75;5.25
77320;PMS7003;66382;52.252;8.780;2023-11-19T13:35:06;6.00;6.00;4.33
77320;PMS7003;66382;52.252;8.780;2023-11-19T13:37:31;6.67;6.67;5.00
77320;PMS7003;66382;52.252;8.780;2023-11-19T13:39:58;7.00;7.00;6.00
77320;PMS7003;66382;52.252;8.780;2023-11-19T13:42:24;9.25;9.25;6.25
77320;PMS7003;66382;52.252;8.780;2023-11-19T13:44:49;10.00;9.00;7.33
77320;PMS7003;66382;52.252;8.780;2023-11-19T13:47:14;5.67;5.67;4.67
77320;PMS7003;66382;52.252;8.780;2023-11-19T13:49:40;6.33;6.33;5.00
77320;PMS7003;66382;52.252;8.780;2023-11-19T13:52:05;9.00;9.00;5.00
77320;PMS7003;66382;52.252;8.780;2023-11-19T13:54:31;9.33;9.33;6.00
77320;PMS7003;66382;52.252;8.780;2023-11-19T13:56:58;6.33;6.33;3.67
77320;PMS7003;66382;52.252;8.780;2023-11-19T13:59:23;7.75;7.75;5.00
77320;PMS7003;66382;52.252;8.780;2023-11-19T14:01:48;6.67;6.67;4.00
77320;PMS7003;66382;52.252;8.780;2023-11-19T14:04:14;8.33;7.67;5.00
77320;PMS7003;66382;52.252;8.780;2023-11-19T14:06:39;7.00;7.00;4.33
77320;PMS7003;66382;52.252;8.780;2023-11-19T14:09:06;8.33;7.33;4.33
77320;PMS7003;66382;52.252;8.780;2023-11-19T14:11:31;8.50;7.50;4.25
77320;PMS7003;66382;52.252;8.780;2023-11-19T14:13:58;8.67;7.67;5.00
77320;PMS7003;66382;52.252;8.780;2023-11-19T14:16:26;5.50;5.25;3.75